Oxford, AL

3:14 PM CDT on July 30, 2016 (GMT -0500)
APRSWXNET | | Change Station

Elev 597 ft 33.58 °N, 85.82 °W | Updated 20 minutes ago

Light Rain
Light Rain
72 °F
Feels Like 72 °F
N
1
Wind Variable Wind from SW
Gusts 5.0 mph

Today
High -- | Low -- °F
--% Chance of Precip.
Yesterday
High -- | Low -- °F
Precip. -- in
Pressure 30.06 in
Visibility 10.0 miles
Clouds Few 4900 ft
Scattered Clouds 9000 ft
Mostly Cloudy 11000 ft
Dew Point 69 °F
Humidity 90%
Rainfall in
Snow Depth Not available.
5:54 AM 7:44 PM
Waning Crescent, 11% visible
SPECI KANB 302006Z AUTO 21003KT 10SM -RA FEW049 SCT090 BKN110 23/21 A3006 RMK AO2 LTG DSNT NE-S RAB06 TSE00 P0000 T02330211 $
Pressure 30.06 in
Visibility 10.0 miles
Clouds Few 4900 ft
Scattered Clouds 9000 ft
Mostly Cloudy 11000 ft
Dew Point 69 °F
Humidity 90%
Rainfall in
Snow Depth Not available.
5:54 AM 7:44 PM
Waning Crescent, 11% visible
SPECI KANB 302006Z AUTO 21003KT 10SM -RA FEW049 SCT090 BKN110 23/21 A3006 RMK AO2 LTG DSNT NE-S RAB06 TSE00 P0000 T02330211 $

10-Day Weather Forecast

Almanac

Astronomy

Jul. 30, 2016 Rise Set
Actual Time
Civil Twilight
Nautical Twilight
Astronomical Twilight
Moon
Length of Visible Light
Length of Day
Tomorrow will be .
, % of the Moon is Illuminated

Today's Extremes

State Highs State Lows

Community

WunderPhotos

Upload Photos

1,928,630 photos uploaded!

WunderBlog® & News

Nearby

Air Quality

  Air Quality AQ Index Pollutant
Not available.

Snow Depth

Station Depth Elevation

Earthquake Activity

City Distance Mag. Time & Date
Minimum magnitude displayed is 2.5.

Coastal Water Temperatures

Place Temperature

Stations

Nearby Weather Stations

Station Location Temp. Windchill Dew Point Humidity Wind Precip. Elev Updated Type
                   

Watches & Warnings

There are currently no watches in effect.